createdAt,value
2019-06-20T00:03:23.543Z,4.93
2019-06-20T00:08:47.830Z,5.53
2019-06-20T00:14:11.307Z,4.93
2019-06-20T00:19:34.759Z,4.67
2019-06-20T00:24:58.075Z,5.53
2019-06-20T00:30:21.726Z,3.43
2019-06-20T00:35:45.548Z,2.97
2019-06-20T00:41:10.528Z,4.77
2019-06-20T00:46:34.443Z,4.47
2019-06-20T00:51:59.692Z,5.87
2019-06-20T00:57:22.859Z,6.13
2019-06-20T01:02:46.175Z,4.80
2019-06-20T01:08:09.390Z,5.80
2019-06-20T01:13:34.297Z,5.43
2019-06-20T01:18:57.891Z,5.53
2019-06-20T01:24:22.035Z,6.57
2019-06-20T01:29:45.868Z,6.50
2019-06-20T01:35:10.183Z,3.00
2019-06-20T01:40:33.411Z,5.10
2019-06-20T01:45:56.990Z,7.53
2019-06-20T01:51:20.568Z,7.40
2019-06-20T01:56:43.875Z,9.70
2019-06-20T02:02:07.898Z,12.60
2019-06-20T02:07:31.864Z,14.53
2019-06-20T02:12:54.908Z,5.17
2019-06-20T02:18:18.559Z,5.43
2019-06-20T02:23:42.483Z,10.00
2019-06-20T02:29:05.903Z,17.30
2019-06-20T02:34:30.211Z,22.10
2019-06-20T02:39:54.027Z,12.80
2019-06-20T02:45:18.550Z,11.03
2019-06-20T02:50:42.105Z,16.13
2019-06-20T02:56:06.067Z,19.63
2019-06-20T03:01:29.232Z,28.27
2019-06-20T03:06:55.863Z,22.30
2019-06-20T03:12:19.692Z,13.97
2019-06-20T03:17:42.947Z,9.17
2019-06-20T03:23:06.095Z,16.77
2019-06-20T03:28:29.570Z,10.00
2019-06-20T03:33:53.545Z,21.40
2019-06-20T03:39:17.594Z,8.93
2019-06-20T03:44:41.514Z,20.70
2019-06-20T03:50:05.055Z,7.83
2019-06-20T03:55:28.087Z,12.27
2019-06-20T04:00:51.923Z,8.13
2019-06-20T04:06:15.991Z,17.70
2019-06-20T04:11:39.560Z,22.17
2019-06-20T04:17:02.835Z,13.87
2019-06-20T04:22:26.528Z,12.47
2019-06-20T04:27:55.556Z,21.90
2019-06-20T04:33:19.338Z,8.30
2019-06-20T04:38:42.863Z,7.90
2019-06-20T04:44:05.971Z,14.73
2019-06-20T04:49:29.490Z,12.03
2019-06-20T04:54:52.668Z,22.33
2019-06-20T05:00:16.292Z,25.67
2019-06-20T05:05:39.908Z,31.27
2019-06-20T05:11:03.134Z,24.67
2019-06-20T05:16:26.354Z,17.87
2019-06-20T05:21:50.387Z,19.33
2019-06-20T05:27:14.078Z,16.00
2019-06-20T05:32:38.015Z,16.93
2019-06-20T05:38:01.916Z,14.07
2019-06-20T05:43:25.647Z,21.23
2019-06-20T05:48:50.125Z,27.47
2019-06-20T05:54:13.539Z,19.50
2019-06-20T05:59:37.039Z,21.83
2019-06-20T06:05:01.706Z,20.43
2019-06-20T06:10:25.236Z,11.97
2019-06-20T06:15:49.328Z,15.07
2019-06-20T06:21:12.519Z,20.57
2019-06-20T06:26:35.824Z,24.20
2019-06-20T06:31:59.103Z,18.93
2019-06-20T06:37:22.035Z,17.90
2019-06-20T06:42:46.449Z,15.20
2019-06-20T06:48:09.604Z,18.33
2019-06-20T06:53:33.499Z,25.00
2019-06-20T06:58:56.857Z,14.87
2019-06-20T07:04:21.248Z,17.20
2019-06-20T07:09:44.449Z,10.73
2019-06-20T07:15:10.351Z,12.43
2019-06-20T07:20:33.994Z,15.53
2019-06-20T07:25:58.343Z,6.93
2019-06-20T07:31:21.787Z,15.77
2019-06-20T07:36:45.252Z,9.67
2019-06-20T07:42:09.259Z,12.30
2019-06-20T07:47:33.004Z,10.37
2019-06-20T07:53:02.099Z,10.10
2019-06-20T07:58:22.248Z,16.63
2019-06-20T08:03:45.868Z,12.97
2019-06-20T08:09:09.682Z,6.53
2019-06-20T08:14:33.368Z,8.90
2019-06-20T08:19:56.983Z,17.77
2019-06-20T08:25:21.504Z,8.70
2019-06-20T08:30:45.059Z,11.00
2019-06-20T08:36:08.911Z,8.80
2019-06-20T08:41:32.324Z,8.17
2019-06-20T08:46:56.902Z,8.57
2019-06-20T08:52:21.120Z,6.53
2019-06-20T08:57:44.489Z,7.20
2019-06-20T09:03:08.372Z,8.10
2019-06-20T09:08:31.680Z,6.50
2019-06-20T09:13:55.500Z,8.73
2019-06-20T09:19:19.096Z,9.10
2019-06-20T09:24:42.307Z,8.13
2019-06-20T09:30:07.684Z,7.03
2019-06-20T09:35:30.983Z,8.77
2019-06-20T09:40:54.874Z,8.20
2019-06-20T09:46:18.756Z,6.47
2019-06-20T09:51:41.979Z,6.40
2019-06-20T09:57:06.034Z,7.73
2019-06-20T10:02:29.801Z,11.00
2019-06-20T10:07:54.516Z,10.40
2019-06-20T10:13:18.822Z,12.43
2019-06-20T10:18:42.735Z,6.93
2019-06-20T10:24:06.500Z,4.93
2019-06-20T10:29:30.239Z,5.47
2019-06-20T10:34:53.708Z,6.00
2019-06-20T10:40:17.839Z,5.17
2019-06-20T10:45:44.095Z,8.17
2019-06-20T10:51:25.127Z,6.40
2019-06-20T10:56:49.034Z,7.57
2019-06-20T11:02:12.263Z,5.70
2019-06-20T11:07:36.253Z,8.07
2019-06-20T11:12:59.673Z,7.73
2019-06-20T11:18:23.275Z,4.87
2019-06-20T11:23:47.432Z,5.70
2019-06-20T11:29:11.607Z,9.37
2019-06-20T11:34:34.843Z,5.87
2019-06-20T11:39:58.082Z,6.87
2019-06-20T11:45:22.299Z,5.97
2019-06-20T11:50:46.526Z,6.87
2019-06-20T11:56:09.998Z,5.87
2019-06-20T12:01:33.642Z,9.20
2019-06-20T12:06:57.454Z,7.23
2019-06-20T12:12:21.189Z,6.67
2019-06-20T12:17:45.353Z,9.00
2019-06-20T12:23:10.942Z,8.57
2019-06-20T12:28:34.278Z,8.60
2019-06-20T12:33:57.476Z,11.77
2019-06-20T12:39:20.640Z,7.47
2019-06-20T12:44:45.903Z,7.50
2019-06-20T12:50:10.663Z,8.13
2019-06-20T12:55:34.088Z,8.57
2019-06-20T13:00:57.603Z,5.97
2019-06-20T13:06:20.984Z,8.37
2019-06-20T13:11:44.886Z,6.77
2019-06-20T13:17:08.787Z,6.20
2019-06-20T13:22:32.375Z,5.40
2019-06-20T13:27:55.795Z,7.03
2019-06-20T13:33:19.398Z,5.07
2019-06-20T13:38:44.490Z,5.83
2019-06-20T13:44:08.783Z,5.60
2019-06-20T13:49:32.319Z,6.30
2019-06-20T13:54:55.516Z,4.20
2019-06-20T14:00:20.826Z,6.60
2019-06-20T14:05:45.415Z,7.63
2019-06-20T14:11:09.423Z,4.53
2019-06-20T14:16:33.319Z,5.70
2019-06-20T14:21:57.316Z,5.90
2019-06-20T14:27:21.053Z,5.00
2019-06-20T14:32:45.236Z,8.00
2019-06-20T14:38:09.739Z,6.40
2019-06-20T14:43:33.717Z,9.50
2019-06-20T14:48:57.474Z,9.40
2019-06-20T14:54:20.852Z,9.60
2019-06-20T14:59:45.056Z,6.67
2019-06-20T15:05:16.195Z,7.53
2019-06-20T15:10:39.966Z,7.57
2019-06-20T15:16:04.027Z,7.73
2019-06-20T15:21:28.599Z,7.53
2019-06-20T15:26:52.414Z,7.57
2019-06-20T15:32:16.055Z,7.77
2019-06-20T15:37:40.040Z,7.03
2019-06-20T15:43:04.077Z,5.63
2019-06-20T15:48:27.883Z,5.33
2019-06-20T15:53:51.299Z,5.27
2019-06-20T15:59:15.191Z,6.73
2019-06-20T16:04:38.952Z,5.37
2019-06-20T16:10:02.756Z,4.77
2019-06-20T16:15:26.013Z,4.00
2019-06-20T16:20:50.238Z,5.23
2019-06-20T16:26:13.977Z,6.50
2019-06-20T16:31:37.487Z,6.23
2019-06-20T16:37:09.649Z,5.87
2019-06-20T16:42:26.676Z,5.70
2019-06-20T16:47:50.460Z,7.03
2019-06-20T16:53:14.188Z,4.83
2019-06-20T16:58:37.382Z,6.37
2019-06-20T17:04:01.582Z,4.30
2019-06-20T17:09:24.867Z,6.07
2019-06-20T17:14:48.389Z,5.17
2019-06-20T17:20:13.602Z,4.07
2019-06-20T17:25:36.567Z,3.03
2019-06-20T17:30:59.794Z,3.70
2019-06-20T17:36:23.197Z,4.73
2019-06-20T17:41:55.335Z,5.20
2019-06-20T17:47:11.623Z,7.23
2019-06-20T17:52:35.087Z,10.00
2019-06-20T17:57:59.140Z,6.30
2019-06-20T18:03:23.085Z,5.83
2019-06-20T18:08:47.632Z,5.10
2019-06-20T18:14:10.881Z,7.30
2019-06-20T18:19:34.757Z,6.43
2019-06-20T18:24:58.096Z,11.77
2019-06-20T18:30:34.713Z,7.07
2019-06-20T18:35:58.233Z,7.93
2019-06-20T18:41:22.185Z,5.67
2019-06-20T18:46:45.986Z,11.83
2019-06-20T18:52:09.934Z,12.33
2019-06-20T18:57:33.323Z,11.43
2019-06-20T19:02:56.539Z,10.97
2019-06-20T19:08:20.077Z,8.20
2019-06-20T19:13:43.846Z,7.27
2019-06-20T19:19:07.111Z,5.53
2019-06-20T19:24:31.368Z,4.63
2019-06-20T19:29:55.266Z,11.30
2019-06-20T19:35:19.427Z,14.77
2019-06-20T19:40:47.820Z,7.67
2019-06-20T19:46:11.928Z,12.10
2019-06-20T19:51:36.090Z,5.83
2019-06-20T19:57:00.044Z,6.90
2019-06-20T20:02:24.164Z,5.27
2019-06-20T20:07:48.455Z,5.47
2019-06-20T20:13:15.092Z,4.70
2019-06-20T20:18:36.734Z,6.57
2019-06-20T20:24:00.655Z,8.87
2019-06-20T20:29:24.726Z,8.37
2019-06-20T20:34:48.546Z,6.63
2019-06-20T20:40:12.876Z,4.37
2019-06-20T20:45:36.803Z,4.17
2019-06-20T20:51:00.039Z,8.90
2019-06-20T20:56:23.664Z,7.80
2019-06-20T21:01:48.228Z,5.93
2019-06-20T21:07:11.867Z,8.27
2019-06-20T21:12:35.935Z,7.73
2019-06-20T21:17:59.621Z,7.33
2019-06-20T21:23:23.750Z,6.57
2019-06-20T21:28:47.899Z,6.50
2019-06-20T21:34:11.019Z,4.57
2019-06-20T21:39:34.606Z,6.33
2019-06-20T21:44:57.766Z,6.93
2019-06-20T21:50:21.154Z,6.97
2019-06-20T21:55:45.159Z,7.70
2019-06-20T22:01:09.948Z,5.40
2019-06-20T22:06:33.279Z,6.10
2019-06-20T22:11:56.771Z,4.40
2019-06-20T22:17:20.669Z,4.40
2019-06-20T22:22:44.286Z,4.17
2019-06-20T22:28:08.370Z,5.17
2019-06-20T22:33:32.196Z,4.50
2019-06-20T22:38:56.034Z,5.00
2019-06-20T22:44:19.347Z,8.20
2019-06-20T22:49:42.703Z,8.13
2019-06-20T22:55:06.435Z,6.67
2019-06-20T23:00:29.484Z,8.97
2019-06-20T23:05:52.761Z,6.33
2019-06-20T23:11:15.970Z,6.27
2019-06-20T23:16:39.586Z,6.93
2019-06-20T23:22:03.027Z,5.40
2019-06-20T23:27:26.619Z,5.87
2019-06-20T23:32:50.780Z,9.60
2019-06-20T23:38:13.898Z,6.70
2019-06-20T23:43:37.943Z,3.87
2019-06-20T23:49:01.631Z,4.30
2019-06-20T23:54:24.767Z,4.10
2019-06-20T23:59:48.211Z,4.77
